sensor_id;sensor_type;location;lat;lon;timestamp;P1;durP1;ratioP1;P2;durP2;ratioP2
19049;SDS011;9657;45.940;12.840;2023-03-11T00:01:41;7.63;;;4.83;;
19049;SDS011;9657;45.940;12.840;2023-03-11T00:04:09;10.33;;;4.90;;
19049;SDS011;9657;45.940;12.840;2023-03-11T00:06:37;6.63;;;4.40;;
19049;SDS011;9657;45.940;12.840;2023-03-11T00:09:04;6.60;;;4.43;;
19049;SDS011;9657;45.940;12.840;2023-03-11T00:11:31;6.37;;;4.40;;
19049;SDS011;9657;45.940;12.840;2023-03-11T00:13:58;6.03;;;4.43;;
19049;SDS011;9657;45.940;12.840;2023-03-11T00:16:25;7.63;;;4.40;;
19049;SDS011;9657;45.940;12.840;2023-03-11T00:18:52;5.87;;;4.50;;
19049;SDS011;9657;45.940;12.840;2023-03-11T00:21:20;6.53;;;4.27;;
19049;SDS011;9657;45.940;12.840;2023-03-11T00:23:47;5.47;;;4.10;;
19049;SDS011;9657;45.940;12.840;2023-03-11T00:26:14;7.10;;;4.07;;
19049;SDS011;9657;45.940;12.840;2023-03-11T00:28:41;8.17;;;4.40;;
19049;SDS011;9657;45.940;12.840;2023-03-11T00:31:09;6.97;;;4.00;;
19049;SDS011;9657;45.940;12.840;2023-03-11T00:33:38;6.77;;;4.57;;
19049;SDS011;9657;45.940;12.840;2023-03-11T00:36:05;5.93;;;4.23;;
19049;SDS011;9657;45.940;12.840;2023-03-11T00:38:34;9.50;;;4.83;;
19049;SDS011;9657;45.940;12.840;2023-03-11T00:41:01;8.30;;;4.53;;
19049;SDS011;9657;45.940;12.840;2023-03-11T00:43:28;7.50;;;4.80;;
19049;SDS011;9657;45.940;12.840;2023-03-11T00:45:55;7.80;;;4.20;;
19049;SDS011;9657;45.940;12.840;2023-03-11T00:48:22;7.33;;;4.20;;
19049;SDS011;9657;45.940;12.840;2023-03-11T00:50:49;6.13;;;4.10;;
19049;SDS011;9657;45.940;12.840;2023-03-11T00:53:16;5.43;;;4.43;;
19049;SDS011;9657;45.940;12.840;2023-03-11T00:55:44;6.37;;;4.30;;
19049;SDS011;9657;45.940;12.840;2023-03-11T00:58:11;6.47;;;4.60;;
19049;SDS011;9657;45.940;12.840;2023-03-11T01:00:38;6.40;;;4.67;;
19049;SDS011;9657;45.940;12.840;2023-03-11T01:03:06;6.60;;;4.53;;
19049;SDS011;9657;45.940;12.840;2023-03-11T01:05:34;6.37;;;4.23;;
19049;SDS011;9657;45.940;12.840;2023-03-11T01:08:01;6.33;;;4.63;;
19049;SDS011;9657;45.940;12.840;2023-03-11T01:10:30;8.50;;;4.30;;
19049;SDS011;9657;45.940;12.840;2023-03-11T01:12:59;6.57;;;4.10;;
19049;SDS011;9657;45.940;12.840;2023-03-11T01:15:27;6.17;;;4.30;;
19049;SDS011;9657;45.940;12.840;2023-03-11T01:17:56;6.97;;;3.80;;
19049;SDS011;9657;45.940;12.840;2023-03-11T01:20:23;9.30;;;4.97;;
19049;SDS011;9657;45.940;12.840;2023-03-11T01:22:50;5.27;;;4.00;;
19049;SDS011;9657;45.940;12.840;2023-03-11T01:25:17;6.63;;;4.20;;
19049;SDS011;9657;45.940;12.840;2023-03-11T01:27:46;4.00;;;3.60;;
19049;SDS011;9657;45.940;12.840;2023-03-11T01:30:15;6.50;;;4.13;;
19049;SDS011;9657;45.940;12.840;2023-03-11T01:32:44;5.63;;;4.07;;
19049;SDS011;9657;45.940;12.840;2023-03-11T01:35:11;6.30;;;4.40;;
19049;SDS011;9657;45.940;12.840;2023-03-11T01:37:39;6.43;;;4.07;;
19049;SDS011;9657;45.940;12.840;2023-03-11T01:40:07;5.53;;;4.43;;
19049;SDS011;9657;45.940;12.840;2023-03-11T01:42:39;6.83;;;3.80;;
19049;SDS011;9657;45.940;12.840;2023-03-11T01:45:13;7.43;;;3.97;;
19049;SDS011;9657;45.940;12.840;2023-03-11T01:47:56;5.77;;;3.87;;
19049;SDS011;9657;45.940;12.840;2023-03-11T01:50:23;5.67;;;3.93;;
19049;SDS011;9657;45.940;12.840;2023-03-11T01:52:52;6.93;;;4.37;;
19049;SDS011;9657;45.940;12.840;2023-03-11T01:55:19;9.37;;;4.70;;
19049;SDS011;9657;45.940;12.840;2023-03-11T01:57:46;6.23;;;4.17;;
19049;SDS011;9657;45.940;12.840;2023-03-11T02:02:54;5.70;;;4.07;;
19049;SDS011;9657;45.940;12.840;2023-03-11T02:05:44;5.77;;;4.47;;
19049;SDS011;9657;45.940;12.840;2023-03-11T02:08:11;5.00;;;4.13;;
19049;SDS011;9657;45.940;12.840;2023-03-11T02:10:38;5.67;;;4.10;;
19049;SDS011;9657;45.940;12.840;2023-03-11T02:13:07;4.37;;;3.80;;
19049;SDS011;9657;45.940;12.840;2023-03-11T02:15:36;6.03;;;4.07;;
19049;SDS011;9657;45.940;12.840;2023-03-11T02:18:05;5.57;;;3.90;;
19049;SDS011;9657;45.940;12.840;2023-03-11T02:20:35;6.83;;;3.90;;
19049;SDS011;9657;45.940;12.840;2023-03-11T02:23:08;5.63;;;3.93;;
19049;SDS011;9657;45.940;12.840;2023-03-11T02:25:38;6.90;;;4.20;;
19049;SDS011;9657;45.940;12.840;2023-03-11T02:28:11;6.97;;;3.90;;
19049;SDS011;9657;45.940;12.840;2023-03-11T02:30:40;6.27;;;4.03;;
19049;SDS011;9657;45.940;12.840;2023-03-11T02:33:09;6.37;;;3.87;;
19049;SDS011;9657;45.940;12.840;2023-03-11T02:35:37;6.13;;;4.20;;
19049;SDS011;9657;45.940;12.840;2023-03-11T02:38:04;6.53;;;3.97;;
19049;SDS011;9657;45.940;12.840;2023-03-11T02:40:43;5.57;;;3.87;;
19049;SDS011;9657;45.940;12.840;2023-03-11T02:43:17;5.17;;;4.00;;
19049;SDS011;9657;45.940;12.840;2023-03-11T02:45:48;7.80;;;4.27;;
19049;SDS011;9657;45.940;12.840;2023-03-11T02:48:16;6.30;;;4.23;;
19049;SDS011;9657;45.940;12.840;2023-03-11T02:50:44;5.53;;;4.03;;
19049;SDS011;9657;45.940;12.840;2023-03-11T02:53:12;4.23;;;3.50;;
19049;SDS011;9657;45.940;12.840;2023-03-11T02:55:39;5.30;;;3.57;;
19049;SDS011;9657;45.940;12.840;2023-03-11T02:58:06;6.67;;;3.93;;
19049;SDS011;9657;45.940;12.840;2023-03-11T03:00:35;6.77;;;3.97;;
19049;SDS011;9657;45.940;12.840;2023-03-11T03:03:02;3.93;;;3.30;;
19049;SDS011;9657;45.940;12.840;2023-03-11T03:05:29;6.30;;;4.23;;
19049;SDS011;9657;45.940;12.840;2023-03-11T03:07:56;6.40;;;4.10;;
19049;SDS011;9657;45.940;12.840;2023-03-11T03:10:24;5.33;;;4.47;;
19049;SDS011;9657;45.940;12.840;2023-03-11T03:12:51;4.93;;;3.77;;
19049;SDS011;9657;45.940;12.840;2023-03-11T03:15:18;5.30;;;3.80;;
19049;SDS011;9657;45.940;12.840;2023-03-11T03:17:46;5.17;;;3.87;;
19049;SDS011;9657;45.940;12.840;2023-03-11T03:20:15;6.30;;;3.97;;
19049;SDS011;9657;45.940;12.840;2023-03-11T03:22:44;6.73;;;3.70;;
19049;SDS011;9657;45.940;12.840;2023-03-11T03:25:11;6.93;;;4.00;;
19049;SDS011;9657;45.940;12.840;2023-03-11T03:27:38;6.57;;;3.93;;
19049;SDS011;9657;45.940;12.840;2023-03-11T03:30:06;4.60;;;3.90;;
19049;SDS011;9657;45.940;12.840;2023-03-11T03:32:34;5.43;;;3.57;;
19049;SDS011;9657;45.940;12.840;2023-03-11T03:35:04;5.50;;;3.73;;
19049;SDS011;9657;45.940;12.840;2023-03-11T03:37:32;5.63;;;4.03;;
19049;SDS011;9657;45.940;12.840;2023-03-11T03:40:01;5.50;;;3.53;;
19049;SDS011;9657;45.940;12.840;2023-03-11T03:42:32;5.37;;;3.60;;
19049;SDS011;9657;45.940;12.840;2023-03-11T03:44:59;6.60;;;4.30;;
19049;SDS011;9657;45.940;12.840;2023-03-11T03:47:27;5.10;;;4.27;;
19049;SDS011;9657;45.940;12.840;2023-03-11T03:49:54;6.57;;;4.17;;
19049;SDS011;9657;45.940;12.840;2023-03-11T03:52:22;4.47;;;3.80;;
19049;SDS011;9657;45.940;12.840;2023-03-11T03:54:49;4.63;;;3.93;;
19049;SDS011;9657;45.940;12.840;2023-03-11T03:57:16;5.57;;;3.93;;
19049;SDS011;9657;45.940;12.840;2023-03-11T03:59:43;4.20;;;3.80;;
19049;SDS011;9657;45.940;12.840;2023-03-11T04:02:10;5.57;;;3.63;;
19049;SDS011;9657;45.940;12.840;2023-03-11T04:04:37;5.63;;;3.73;;
19049;SDS011;9657;45.940;12.840;2023-03-11T04:07:04;4.87;;;3.70;;
19049;SDS011;9657;45.940;12.840;2023-03-11T04:09:33;5.63;;;3.20;;
19049;SDS011;9657;45.940;12.840;2023-03-11T04:12:00;4.47;;;3.30;;
19049;SDS011;9657;45.940;12.840;2023-03-11T04:14:27;5.70;;;4.00;;
19049;SDS011;9657;45.940;12.840;2023-03-11T04:16:55;7.00;;;4.20;;
19049;SDS011;9657;45.940;12.840;2023-03-11T04:19:22;4.60;;;3.80;;
19049;SDS011;9657;45.940;12.840;2023-03-11T04:21:50;5.20;;;3.83;;
19049;SDS011;9657;45.940;12.840;2023-03-11T04:24:17;5.87;;;3.77;;
19049;SDS011;9657;45.940;12.840;2023-03-11T04:26:45;5.93;;;3.73;;
19049;SDS011;9657;45.940;12.840;2023-03-11T04:29:12;7.70;;;4.13;;
19049;SDS011;9657;45.940;12.840;2023-03-11T04:31:39;6.53;;;4.00;;
19049;SDS011;9657;45.940;12.840;2023-03-11T04:34:06;6.00;;;4.17;;
19049;SDS011;9657;45.940;12.840;2023-03-11T04:36:33;4.60;;;3.90;;
19049;SDS011;9657;45.940;12.840;2023-03-11T04:39:00;5.63;;;3.73;;
19049;SDS011;9657;45.940;12.840;2023-03-11T04:41:27;8.13;;;3.63;;
19049;SDS011;9657;45.940;12.840;2023-03-11T04:43:57;4.93;;;3.50;;
19049;SDS011;9657;45.940;12.840;2023-03-11T04:46:24;7.90;;;3.97;;
19049;SDS011;9657;45.940;12.840;2023-03-11T04:48:51;7.93;;;3.77;;
19049;SDS011;9657;45.940;12.840;2023-03-11T04:51:18;5.63;;;4.10;;
19049;SDS011;9657;45.940;12.840;2023-03-11T04:53:45;5.60;;;4.00;;
19049;SDS011;9657;45.940;12.840;2023-03-11T04:56:12;6.73;;;3.90;;
19049;SDS011;9657;45.940;12.840;2023-03-11T04:58:39;6.90;;;4.43;;
19049;SDS011;9657;45.940;12.840;2023-03-11T05:01:08;7.20;;;4.10;;
19049;SDS011;9657;45.940;12.840;2023-03-11T05:03:35;4.30;;;3.53;;
19049;SDS011;9657;45.940;12.840;2023-03-11T05:06:02;5.67;;;3.47;;
19049;SDS011;9657;45.940;12.840;2023-03-11T05:08:29;5.80;;;3.90;;
19049;SDS011;9657;45.940;12.840;2023-03-11T05:10:56;6.00;;;4.47;;
19049;SDS011;9657;45.940;12.840;2023-03-11T05:13:23;6.80;;;3.90;;
19049;SDS011;9657;45.940;12.840;2023-03-11T05:15:50;4.57;;;3.77;;
19049;SDS011;9657;45.940;12.840;2023-03-11T05:18:18;5.83;;;3.87;;
19049;SDS011;9657;45.940;12.840;2023-03-11T05:20:46;4.40;;;3.33;;
19049;SDS011;9657;45.940;12.840;2023-03-11T05:23:13;6.07;;;3.90;;
19049;SDS011;9657;45.940;12.840;2023-03-11T05:25:41;5.33;;;3.67;;
19049;SDS011;9657;45.940;12.840;2023-03-11T05:28:08;4.17;;;3.60;;
19049;SDS011;9657;45.940;12.840;2023-03-11T05:30:35;5.67;;;3.57;;
19049;SDS011;9657;45.940;12.840;2023-03-11T05:33:02;5.00;;;3.80;;
19049;SDS011;9657;45.940;12.840;2023-03-11T05:35:31;5.03;;;3.40;;
19049;SDS011;9657;45.940;12.840;2023-03-11T05:38:00;6.07;;;3.80;;
19049;SDS011;9657;45.940;12.840;2023-03-11T05:40:27;5.60;;;3.83;;
19049;SDS011;9657;45.940;12.840;2023-03-11T05:42:54;6.17;;;3.80;;
19049;SDS011;9657;45.940;12.840;2023-03-11T05:45:21;6.03;;;3.70;;
19049;SDS011;9657;45.940;12.840;2023-03-11T05:47:50;6.13;;;3.97;;
19049;SDS011;9657;45.940;12.840;2023-03-11T05:50:17;4.47;;;3.37;;
19049;SDS011;9657;45.940;12.840;2023-03-11T05:52:45;5.63;;;3.60;;
19049;SDS011;9657;45.940;12.840;2023-03-11T05:55:12;5.57;;;3.50;;
19049;SDS011;9657;45.940;12.840;2023-03-11T05:57:39;5.03;;;3.40;;
19049;SDS011;9657;45.940;12.840;2023-03-11T06:00:07;5.17;;;3.77;;
19049;SDS011;9657;45.940;12.840;2023-03-11T06:02:36;6.37;;;3.50;;
19049;SDS011;9657;45.940;12.840;2023-03-11T06:05:04;4.53;;;3.93;;
19049;SDS011;9657;45.940;12.840;2023-03-11T06:07:32;5.33;;;3.40;;
19049;SDS011;9657;45.940;12.840;2023-03-11T06:10:01;5.97;;;3.43;;
19049;SDS011;9657;45.940;12.840;2023-03-11T06:12:29;5.77;;;3.70;;
19049;SDS011;9657;45.940;12.840;2023-03-11T06:14:58;3.97;;;3.67;;
19049;SDS011;9657;45.940;12.840;2023-03-11T06:17:25;4.13;;;3.57;;
19049;SDS011;9657;45.940;12.840;2023-03-11T06:19:52;4.93;;;3.63;;
19049;SDS011;9657;45.940;12.840;2023-03-11T06:22:19;5.50;;;3.87;;
19049;SDS011;9657;45.940;12.840;2023-03-11T06:24:46;7.63;;;3.40;;
19049;SDS011;9657;45.940;12.840;2023-03-11T06:27:15;4.83;;;3.30;;
19049;SDS011;9657;45.940;12.840;2023-03-11T06:29:42;4.30;;;3.83;;
19049;SDS011;9657;45.940;12.840;2023-03-11T06:32:09;5.30;;;4.17;;
19049;SDS011;9657;45.940;12.840;2023-03-11T06:34:36;4.57;;;3.87;;
19049;SDS011;9657;45.940;12.840;2023-03-11T06:37:03;5.20;;;3.37;;
19049;SDS011;9657;45.940;12.840;2023-03-11T06:39:30;5.00;;;3.23;;
19049;SDS011;9657;45.940;12.840;2023-03-11T06:41:57;5.47;;;3.27;;
19049;SDS011;9657;45.940;12.840;2023-03-11T06:44:25;3.80;;;3.13;;
19049;SDS011;9657;45.940;12.840;2023-03-11T06:46:52;5.90;;;3.80;;
19049;SDS011;9657;45.940;12.840;2023-03-11T06:49:19;5.00;;;3.57;;
19049;SDS011;9657;45.940;12.840;2023-03-11T06:51:46;3.53;;;3.17;;
19049;SDS011;9657;45.940;12.840;2023-03-11T06:54:13;4.60;;;3.37;;
19049;SDS011;9657;45.940;12.840;2023-03-11T06:56:40;4.00;;;3.10;;
19049;SDS011;9657;45.940;12.840;2023-03-11T06:59:07;5.03;;;3.13;;
19049;SDS011;9657;45.940;12.840;2023-03-11T07:01:35;5.07;;;3.17;;
19049;SDS011;9657;45.940;12.840;2023-03-11T07:04:02;3.93;;;3.53;;
19049;SDS011;9657;45.940;12.840;2023-03-11T07:06:30;6.23;;;3.37;;
19049;SDS011;9657;45.940;12.840;2023-03-11T07:08:57;6.07;;;3.50;;
19049;SDS011;9657;45.940;12.840;2023-03-11T07:11:24;4.37;;;3.70;;
19049;SDS011;9657;45.940;12.840;2023-03-11T07:13:52;6.43;;;3.50;;
19049;SDS011;9657;45.940;12.840;2023-03-11T07:16:20;3.40;;;3.10;;
19049;SDS011;9657;45.940;12.840;2023-03-11T07:18:51;3.73;;;3.43;;
19049;SDS011;9657;45.940;12.840;2023-03-11T07:21:20;5.23;;;3.80;;
19049;SDS011;9657;45.940;12.840;2023-03-11T07:23:50;4.40;;;3.57;;
19049;SDS011;9657;45.940;12.840;2023-03-11T07:26:19;4.80;;;3.37;;
19049;SDS011;9657;45.940;12.840;2023-03-11T07:28:46;4.57;;;3.27;;
19049;SDS011;9657;45.940;12.840;2023-03-11T07:31:15;4.77;;;3.60;;
19049;SDS011;9657;45.940;12.840;2023-03-11T07:33:43;3.43;;;2.73;;
19049;SDS011;9657;45.940;12.840;2023-03-11T07:36:12;4.37;;;3.50;;
19049;SDS011;9657;45.940;12.840;2023-03-11T07:38:40;3.73;;;3.13;;
19049;SDS011;9657;45.940;12.840;2023-03-11T07:41:08;5.63;;;3.00;;
19049;SDS011;9657;45.940;12.840;2023-03-11T07:43:36;4.27;;;3.07;;
19049;SDS011;9657;45.940;12.840;2023-03-11T07:46:04;5.00;;;3.30;;
19049;SDS011;9657;45.940;12.840;2023-03-11T07:48:32;3.53;;;3.00;;
19049;SDS011;9657;45.940;12.840;2023-03-11T07:51:01;3.73;;;3.07;;
19049;SDS011;9657;45.940;12.840;2023-03-11T07:53:31;4.70;;;3.20;;
19049;SDS011;9657;45.940;12.840;2023-03-11T07:55:58;4.60;;;3.27;;
19049;SDS011;9657;45.940;12.840;2023-03-11T07:58:26;6.00;;;3.23;;
19049;SDS011;9657;45.940;12.840;2023-03-11T08:00:54;5.17;;;3.10;;
19049;SDS011;9657;45.940;12.840;2023-03-11T08:03:21;4.00;;;3.17;;
19049;SDS011;9657;45.940;12.840;2023-03-11T08:05:49;5.73;;;3.43;;
19049;SDS011;9657;45.940;12.840;2023-03-11T08:08:17;4.90;;;3.20;;
19049;SDS011;9657;45.940;12.840;2023-03-11T08:10:46;6.67;;;3.20;;
19049;SDS011;9657;45.940;12.840;2023-03-11T08:13:13;4.37;;;3.27;;
19049;SDS011;9657;45.940;12.840;2023-03-11T08:15:40;4.53;;;3.20;;
19049;SDS011;9657;45.940;12.840;2023-03-11T08:18:07;3.27;;;2.97;;
19049;SDS011;9657;45.940;12.840;2023-03-11T08:20:35;5.37;;;3.30;;
19049;SDS011;9657;45.940;12.840;2023-03-11T08:23:03;5.87;;;3.30;;
19049;SDS011;9657;45.940;12.840;2023-03-11T08:25:30;7.23;;;3.00;;
19049;SDS011;9657;45.940;12.840;2023-03-11T08:27:58;5.43;;;3.57;;
19049;SDS011;9657;45.940;12.840;2023-03-11T08:30:25;4.73;;;3.47;;
19049;SDS011;9657;45.940;12.840;2023-03-11T08:32:52;3.43;;;2.77;;
19049;SDS011;9657;45.940;12.840;2023-03-11T08:35:20;4.03;;;3.10;;
19049;SDS011;9657;45.940;12.840;2023-03-11T08:37:47;6.33;;;3.70;;
19049;SDS011;9657;45.940;12.840;2023-03-11T08:40:14;5.27;;;3.03;;
19049;SDS011;9657;45.940;12.840;2023-03-11T08:42:41;3.20;;;2.83;;
19049;SDS011;9657;45.940;12.840;2023-03-11T08:45:10;4.63;;;3.20;;
19049;SDS011;9657;45.940;12.840;2023-03-11T08:47:37;4.50;;;3.43;;
19049;SDS011;9657;45.940;12.840;2023-03-11T08:50:06;5.57;;;3.50;;
19049;SDS011;9657;45.940;12.840;2023-03-11T08:52:36;4.33;;;3.27;;
19049;SDS011;9657;45.940;12.840;2023-03-11T08:55:04;7.37;;;3.40;;
19049;SDS011;9657;45.940;12.840;2023-03-11T08:57:33;4.07;;;3.07;;
19049;SDS011;9657;45.940;12.840;2023-03-11T09:00:02;4.47;;;2.87;;
19049;SDS011;9657;45.940;12.840;2023-03-11T09:02:31;5.00;;;3.10;;
19049;SDS011;9657;45.940;12.840;2023-03-11T09:04:58;4.90;;;3.10;;
19049;SDS011;9657;45.940;12.840;2023-03-11T09:07:25;5.17;;;3.13;;
19049;SDS011;9657;45.940;12.840;2023-03-11T09:09:52;7.20;;;3.67;;
19049;SDS011;9657;45.940;12.840;2023-03-11T09:12:19;5.13;;;2.90;;
19049;SDS011;9657;45.940;12.840;2023-03-11T09:14:47;6.23;;;3.63;;
19049;SDS011;9657;45.940;12.840;2023-03-11T09:17:14;5.03;;;3.30;;
19049;SDS011;9657;45.940;12.840;2023-03-11T09:19:42;5.10;;;3.27;;
19049;SDS011;9657;45.940;12.840;2023-03-11T09:22:09;7.13;;;3.70;;
19049;SDS011;9657;45.940;12.840;2023-03-11T09:24:37;3.37;;;2.80;;
19049;SDS011;9657;45.940;12.840;2023-03-11T09:27:04;5.53;;;2.80;;
19049;SDS011;9657;45.940;12.840;2023-03-11T09:29:31;5.20;;;3.27;;
19049;SDS011;9657;45.940;12.840;2023-03-11T09:31:58;5.20;;;3.03;;
19049;SDS011;9657;45.940;12.840;2023-03-11T09:34:25;5.17;;;3.13;;
19049;SDS011;9657;45.940;12.840;2023-03-11T09:36:53;3.70;;;3.00;;
19049;SDS011;9657;45.940;12.840;2023-03-11T09:39:20;3.80;;;2.97;;
19049;SDS011;9657;45.940;12.840;2023-03-11T09:41:50;4.97;;;2.70;;
19049;SDS011;9657;45.940;12.840;2023-03-11T09:44:20;4.43;;;2.87;;
19049;SDS011;9657;45.940;12.840;2023-03-11T09:46:58;4.27;;;3.07;;
19049;SDS011;9657;45.940;12.840;2023-03-11T09:49:49;5.20;;;2.87;;
19049;SDS011;9657;45.940;12.840;2023-03-11T09:52:31;4.67;;;2.93;;
19049;SDS011;9657;45.940;12.840;2023-03-11T09:55:03;5.30;;;2.97;;
19049;SDS011;9657;45.940;12.840;2023-03-11T09:57:36;3.73;;;3.00;;
19049;SDS011;9657;45.940;12.840;2023-03-11T10:00:04;4.27;;;2.93;;
19049;SDS011;9657;45.940;12.840;2023-03-11T10:02:32;3.93;;;3.53;;
19049;SDS011;9657;45.940;12.840;2023-03-11T10:05:05;4.80;;;3.50;;
19049;SDS011;9657;45.940;12.840;2023-03-11T10:07:39;6.00;;;3.27;;
19049;SDS011;9657;45.940;12.840;2023-03-11T10:10:10;7.00;;;3.40;;
19049;SDS011;9657;45.940;12.840;2023-03-11T10:12:42;5.10;;;3.60;;
19049;SDS011;9657;45.940;12.840;2023-03-11T10:15:18;4.07;;;3.30;;
19049;SDS011;9657;45.940;12.840;2023-03-11T10:17:52;4.23;;;3.43;;
19049;SDS011;9657;45.940;12.840;2023-03-11T10:20:33;5.83;;;3.43;;
19049;SDS011;9657;45.940;12.840;2023-03-11T10:23:11;4.97;;;3.43;;
19049;SDS011;9657;45.940;12.840;2023-03-11T10:25:50;6.03;;;3.70;;
19049;SDS011;9657;45.940;12.840;2023-03-11T10:28:26;4.37;;;3.50;;
19049;SDS011;9657;45.940;12.840;2023-03-11T10:31:00;4.03;;;3.50;;
19049;SDS011;9657;45.940;12.840;2023-03-11T10:33:34;4.83;;;3.53;;
19049;SDS011;9657;45.940;12.840;2023-03-11T10:36:09;6.50;;;3.90;;
19049;SDS011;9657;45.940;12.840;2023-03-11T10:38:43;6.73;;;3.90;;
19049;SDS011;9657;45.940;12.840;2023-03-11T10:41:13;5.90;;;3.60;;
19049;SDS011;9657;45.940;12.840;2023-03-11T10:43:45;6.93;;;3.53;;
19049;SDS011;9657;45.940;12.840;2023-03-11T10:46:18;5.67;;;3.70;;
19049;SDS011;9657;45.940;12.840;2023-03-11T10:48:48;4.47;;;3.47;;
19049;SDS011;9657;45.940;12.840;2023-03-11T10:51:16;5.73;;;3.73;;
19049;SDS011;9657;45.940;12.840;2023-03-11T10:53:48;6.50;;;3.40;;
19049;SDS011;9657;45.940;12.840;2023-03-11T10:56:27;4.00;;;3.27;;
19049;SDS011;9657;45.940;12.840;2023-03-11T10:58:57;4.87;;;4.30;;
19049;SDS011;9657;45.940;12.840;2023-03-11T11:01:24;4.07;;;3.57;;
19049;SDS011;9657;45.940;12.840;2023-03-11T11:03:54;5.10;;;3.03;;
19049;SDS011;9657;45.940;12.840;2023-03-11T11:06:24;7.87;;;3.57;;
19049;SDS011;9657;45.940;12.840;2023-03-11T11:12:02;6.73;;;3.90;;
19049;SDS011;9657;45.940;12.840;2023-03-11T11:14:43;6.73;;;4.03;;
19049;SDS011;9657;45.940;12.840;2023-03-11T11:17:18;4.87;;;3.87;;
19049;SDS011;9657;45.940;12.840;2023-03-11T11:19:50;6.33;;;3.90;;
19049;SDS011;9657;45.940;12.840;2023-03-11T11:22:19;5.90;;;3.93;;
19049;SDS011;9657;45.940;12.840;2023-03-11T11:24:49;6.57;;;4.00;;
19049;SDS011;9657;45.940;12.840;2023-03-11T11:27:19;9.00;;;3.40;;
19049;SDS011;9657;45.940;12.840;2023-03-11T11:30:01;5.20;;;3.53;;
19049;SDS011;9657;45.940;12.840;2023-03-11T11:32:36;7.70;;;3.90;;
19049;SDS011;9657;45.940;12.840;2023-03-11T11:35:04;6.53;;;3.63;;
19049;SDS011;9657;45.940;12.840;2023-03-11T11:37:34;5.33;;;3.30;;
19049;SDS011;9657;45.940;12.840;2023-03-11T11:40:06;6.80;;;3.93;;
19049;SDS011;9657;45.940;12.840;2023-03-11T11:42:44;5.80;;;4.13;;
19049;SDS011;9657;45.940;12.840;2023-03-11T11:45:18;6.90;;;3.93;;
19049;SDS011;9657;45.940;12.840;2023-03-11T11:47:53;4.17;;;3.50;;
19049;SDS011;9657;45.940;12.840;2023-03-11T11:50:25;6.30;;;3.77;;
19049;SDS011;9657;45.940;12.840;2023-03-11T11:53:00;6.00;;;3.47;;
19049;SDS011;9657;45.940;12.840;2023-03-11T11:55:34;6.83;;;3.80;;
19049;SDS011;9657;45.940;12.840;2023-03-11T11:58:06;4.97;;;3.27;;
19049;SDS011;9657;45.940;12.840;2023-03-11T12:00:36;5.70;;;3.30;;
19049;SDS011;9657;45.940;12.840;2023-03-11T12:03:16;4.87;;;4.00;;
19049;SDS011;9657;45.940;12.840;2023-03-11T12:05:53;9.07;;;4.83;;
19049;SDS011;9657;45.940;12.840;2023-03-11T12:08:25;8.20;;;4.00;;
19049;SDS011;9657;45.940;12.840;2023-03-11T12:11:01;8.53;;;4.97;;
19049;SDS011;9657;45.940;12.840;2023-03-11T12:13:46;6.03;;;4.07;;
19049;SDS011;9657;45.940;12.840;2023-03-11T12:16:22;7.03;;;4.70;;
19049;SDS011;9657;45.940;12.840;2023-03-11T12:18:55;5.97;;;4.83;;
19049;SDS011;9657;45.940;12.840;2023-03-11T12:21:34;8.83;;;5.60;;
19049;SDS011;9657;45.940;12.840;2023-03-11T12:24:13;9.40;;;6.47;;
19049;SDS011;9657;45.940;12.840;2023-03-11T12:26:57;9.47;;;6.33;;
19049;SDS011;9657;45.940;12.840;2023-03-11T12:29:29;10.07;;;6.30;;
19049;SDS011;9657;45.940;12.840;2023-03-11T12:31:59;12.37;;;6.97;;
19049;SDS011;9657;45.940;12.840;2023-03-11T12:34:27;11.93;;;6.50;;
19049;SDS011;9657;45.940;12.840;2023-03-11T12:36:57;9.47;;;7.00;;
19049;SDS011;9657;45.940;12.840;2023-03-11T12:39:28;8.13;;;6.37;;
19049;SDS011;9657;45.940;12.840;2023-03-11T12:44:43;11.17;;;6.47;;
19049;SDS011;9657;45.940;12.840;2023-03-11T12:50:35;14.20;;;7.40;;
19049;SDS011;9657;45.940;12.840;2023-03-11T12:53:04;10.00;;;6.30;;
19049;SDS011;9657;45.940;12.840;2023-03-11T12:55:52;10.97;;;7.47;;
19049;SDS011;9657;45.940;12.840;2023-03-11T13:01:52;10.57;;;7.23;;
19049;SDS011;9657;45.940;12.840;2023-03-11T13:04:29;10.73;;;6.60;;
19049;SDS011;9657;45.940;12.840;2023-03-11T13:07:33;17.87;;;8.50;;
19049;SDS011;9657;45.940;12.840;2023-03-11T13:10:12;12.47;;;7.50;;
19049;SDS011;9657;45.940;12.840;2023-03-11T13:12:42;9.33;;;7.10;;
19049;SDS011;9657;45.940;12.840;2023-03-11T13:15:29;11.57;;;6.80;;
19049;SDS011;9657;45.940;12.840;2023-03-11T13:18:01;12.80;;;6.27;;
19049;SDS011;9657;45.940;12.840;2023-03-11T13:20:42;13.13;;;6.53;;
19049;SDS011;9657;45.940;12.840;2023-03-11T13:23:28;9.93;;;6.63;;
19049;SDS011;9657;45.940;12.840;2023-03-11T13:26:19;10.23;;;7.03;;
19049;SDS011;9657;45.940;12.840;2023-03-11T13:35:20;10.60;;;6.50;;
19049;SDS011;9657;45.940;12.840;2023-03-11T13:38:11;14.70;;;7.33;;
19049;SDS011;9657;45.940;12.840;2023-03-11T13:40:54;11.47;;;7.67;;
19049;SDS011;9657;45.940;12.840;2023-03-11T13:43:21;12.40;;;7.27;;
19049;SDS011;9657;45.940;12.840;2023-03-11T13:45:51;9.50;;;6.87;;
19049;SDS011;9657;45.940;12.840;2023-03-11T13:48:25;10.33;;;7.03;;
19049;SDS011;9657;45.940;12.840;2023-03-11T13:50:56;12.50;;;6.67;;
19049;SDS011;9657;45.940;12.840;2023-03-11T13:53:28;11.40;;;6.80;;
19049;SDS011;9657;45.940;12.840;2023-03-11T13:55:57;12.87;;;7.27;;
19049;SDS011;9657;45.940;12.840;2023-03-11T13:58:25;11.07;;;6.77;;
19049;SDS011;9657;45.940;12.840;2023-03-11T14:00:54;8.83;;;6.57;;
19049;SDS011;9657;45.940;12.840;2023-03-11T14:03:24;12.93;;;6.93;;
19049;SDS011;9657;45.940;12.840;2023-03-11T14:05:57;9.50;;;6.53;;
19049;SDS011;9657;45.940;12.840;2023-03-11T14:08:27;10.97;;;6.87;;
19049;SDS011;9657;45.940;12.840;2023-03-11T14:10:56;8.40;;;6.40;;
19049;SDS011;9657;45.940;12.840;2023-03-11T14:13:24;11.27;;;7.00;;
19049;SDS011;9657;45.940;12.840;2023-03-11T14:15:55;10.67;;;6.20;;
19049;SDS011;9657;45.940;12.840;2023-03-11T14:18:28;10.40;;;6.50;;
19049;SDS011;9657;45.940;12.840;2023-03-11T14:21:00;11.33;;;7.30;;
19049;SDS011;9657;45.940;12.840;2023-03-11T14:23:29;8.53;;;6.07;;
19049;SDS011;9657;45.940;12.840;2023-03-11T14:26:00;10.20;;;6.73;;
19049;SDS011;9657;45.940;12.840;2023-03-11T14:28:31;14.80;;;7.30;;
19049;SDS011;9657;45.940;12.840;2023-03-11T14:31:01;9.37;;;6.60;;
19049;SDS011;9657;45.940;12.840;2023-03-11T14:33:31;11.77;;;6.10;;
19049;SDS011;9657;45.940;12.840;2023-03-11T14:35:58;12.87;;;6.07;;
19049;SDS011;9657;45.940;12.840;2023-03-11T14:38:28;11.30;;;7.17;;
19049;SDS011;9657;45.940;12.840;2023-03-11T14:40:56;9.80;;;6.10;;
19049;SDS011;9657;45.940;12.840;2023-03-11T14:43:37;12.93;;;6.97;;
19049;SDS011;9657;45.940;12.840;2023-03-11T14:46:10;11.37;;;6.30;;
19049;SDS011;9657;45.940;12.840;2023-03-11T14:48:45;14.80;;;7.10;;
19049;SDS011;9657;45.940;12.840;2023-03-11T14:51:13;12.67;;;6.10;;
19049;SDS011;9657;45.940;12.840;2023-03-11T14:53:45;13.33;;;5.80;;
19049;SDS011;9657;45.940;12.840;2023-03-11T14:56:17;11.47;;;5.90;;
19049;SDS011;9657;45.940;12.840;2023-03-11T14:58:47;9.10;;;5.00;;
19049;SDS011;9657;45.940;12.840;2023-03-11T15:01:21;14.20;;;5.77;;
19049;SDS011;9657;45.940;12.840;2023-03-11T15:03:53;12.00;;;5.17;;
19049;SDS011;9657;45.940;12.840;2023-03-11T15:06:24;13.43;;;5.20;;
19049;SDS011;9657;45.940;12.840;2023-03-11T15:08:54;13.27;;;5.03;;
19049;SDS011;9657;45.940;12.840;2023-03-11T15:11:25;11.57;;;5.43;;
19049;SDS011;9657;45.940;12.840;2023-03-11T15:13:53;10.40;;;5.03;;
19049;SDS011;9657;45.940;12.840;2023-03-11T15:16:39;12.10;;;5.63;;
19049;SDS011;9657;45.940;12.840;2023-03-11T15:19:21;10.67;;;4.63;;
19049;SDS011;9657;45.940;12.840;2023-03-11T15:22:04;12.23;;;5.30;;
19049;SDS011;9657;45.940;12.840;2023-03-11T15:24:48;13.87;;;4.77;;